sensor_id;sensor_type;location;lat;lon;timestamp;temperature;humidity
8780;DHT22;62328;51.19929245;4.42130175;2022-08-21T00:00:06;18.90;99.90
8780;DHT22;62328;51.19929245;4.42130175;2022-08-21T00:02:33;19.00;99.90
8780;DHT22;62328;51.19929245;4.42130175;2022-08-21T00:05:00;18.90;99.90
8780;DHT22;62328;51.19929245;4.42130175;2022-08-21T00:07:28;18.90;99.90
8780;DHT22;62328;51.19929245;4.42130175;2022-08-21T00:09:56;18.90;99.90
8780;DHT22;62328;51.19929245;4.42130175;2022-08-21T00:12:23;18.90;99.90
8780;DHT22;62328;51.19929245;4.42130175;2022-08-21T00:14:50;18.80;99.90
8780;DHT22;62328;51.19929245;4.42130175;2022-08-21T00:17:17;18.90;99.90
8780;DHT22;62328;51.19929245;4.42130175;2022-08-21T00:19:44;18.90;99.90
8780;DHT22;62328;51.19929245;4.42130175;2022-08-21T00:22:11;18.80;99.90
8780;DHT22;62328;51.19929245;4.42130175;2022-08-21T00:24:38;18.80;99.90
8780;DHT22;62328;51.19929245;4.42130175;2022-08-21T00:27:06;18.70;99.90
8780;DHT22;62328;51.19929245;4.42130175;2022-08-21T00:29:34;18.70;99.90
8780;DHT22;62328;51.19929245;4.42130175;2022-08-21T00:32:01;18.70;99.90
8780;DHT22;62328;51.19929245;4.42130175;2022-08-21T00:34:28;18.70;99.90
8780;DHT22;62328;51.19929245;4.42130175;2022-08-21T00:36:55;18.70;99.90
8780;DHT22;62328;51.19929245;4.42130175;2022-08-21T00:39:22;18.70;99.90
8780;DHT22;62328;51.19929245;4.42130175;2022-08-21T00:41:49;18.70;99.90
8780;DHT22;62328;51.19929245;4.42130175;2022-08-21T00:44:18;18.70;99.90
8780;DHT22;62328;51.19929245;4.42130175;2022-08-21T00:46:45;18.60;99.90
8780;DHT22;62328;51.19929245;4.42130175;2022-08-21T00:49:12;18.60;99.90
8780;DHT22;62328;51.19929245;4.42130175;2022-08-21T00:51:45;18.60;99.90
8780;DHT22;62328;51.19929245;4.42130175;2022-08-21T00:54:14;18.60;99.90
8780;DHT22;62328;51.19929245;4.42130175;2022-08-21T00:56:45;18.60;99.90
8780;DHT22;62328;51.19929245;4.42130175;2022-08-21T00:59:13;18.60;99.90
8780;DHT22;62328;51.19929245;4.42130175;2022-08-21T01:01:41;18.50;99.90
8780;DHT22;62328;51.19929245;4.42130175;2022-08-21T01:04:08;18.50;99.90
8780;DHT22;62328;51.19929245;4.42130175;2022-08-21T01:06:34;18.50;99.90
8780;DHT22;62328;51.19929245;4.42130175;2022-08-21T01:09:03;18.50;99.90
8780;DHT22;62328;51.19929245;4.42130175;2022-08-21T01:11:30;18.40;99.90
8780;DHT22;62328;51.19929245;4.42130175;2022-08-21T01:13:57;18.40;99.90
8780;DHT22;62328;51.19929245;4.42130175;2022-08-21T01:16:25;18.40;99.90
8780;DHT22;62328;51.19929245;4.42130175;2022-08-21T01:18:53;18.40;99.90
8780;DHT22;62328;51.19929245;4.42130175;2022-08-21T01:21:24;18.50;99.90
8780;DHT22;62328;51.19929245;4.42130175;2022-08-21T01:23:53;18.40;99.90
8780;DHT22;62328;51.19929245;4.42130175;2022-08-21T01:26:23;18.40;99.90
8780;DHT22;62328;51.19929245;4.42130175;2022-08-21T01:28:56;18.40;99.90
8780;DHT22;62328;51.19929245;4.42130175;2022-08-21T01:31:25;18.40;99.90
8780;DHT22;62328;51.19929245;4.42130175;2022-08-21T01:33:53;18.30;99.90
8780;DHT22;62328;51.19929245;4.42130175;2022-08-21T01:36:22;18.20;99.90
8780;DHT22;62328;51.19929245;4.42130175;2022-08-21T01:38:50;18.20;99.90
8780;DHT22;62328;51.19929245;4.42130175;2022-08-21T01:41:16;18.10;99.90
8780;DHT22;62328;51.19929245;4.42130175;2022-08-21T01:43:46;18.10;99.90
8780;DHT22;62328;51.19929245;4.42130175;2022-08-21T01:46:13;18.10;99.90
8780;DHT22;62328;51.19929245;4.42130175;2022-08-21T01:48:41;18.10;99.90
8780;DHT22;62328;51.19929245;4.42130175;2022-08-21T01:51:08;18.00;99.90
8780;DHT22;62328;51.19929245;4.42130175;2022-08-21T01:53:36;17.90;99.90
8780;DHT22;62328;51.19929245;4.42130175;2022-08-21T01:56:05;17.90;99.90
8780;DHT22;62328;51.19929245;4.42130175;2022-08-21T01:58:33;17.90;99.90
8780;DHT22;62328;51.19929245;4.42130175;2022-08-21T02:01:00;17.80;99.90
8780;DHT22;62328;51.19929245;4.42130175;2022-08-21T02:03:27;17.80;99.90
8780;DHT22;62328;51.19929245;4.42130175;2022-08-21T02:05:54;17.70;99.90
8780;DHT22;62328;51.19929245;4.42130175;2022-08-21T02:08:21;17.70;99.90
8780;DHT22;62328;51.19929245;4.42130175;2022-08-21T02:10:50;17.70;99.90
8780;DHT22;62328;51.19929245;4.42130175;2022-08-21T02:13:18;17.80;99.90
8780;DHT22;62328;51.19929245;4.42130175;2022-08-21T02:15:45;17.70;99.90
8780;DHT22;62328;51.19929245;4.42130175;2022-08-21T02:18:12;17.80;99.90
8780;DHT22;62328;51.19929245;4.42130175;2022-08-21T02:20:40;17.80;99.90
8780;DHT22;62328;51.19929245;4.42130175;2022-08-21T02:23:09;17.70;99.90
8780;DHT22;62328;51.19929245;4.42130175;2022-08-21T02:25:37;17.70;99.90
8780;DHT22;62328;51.19929245;4.42130175;2022-08-21T02:28:08;17.70;99.90
8780;DHT22;62328;51.19929245;4.42130175;2022-08-21T02:30:39;17.70;99.90
8780;DHT22;62328;51.19929245;4.42130175;2022-08-21T02:33:08;17.70;99.90
8780;DHT22;62328;51.19929245;4.42130175;2022-08-21T02:35:35;17.80;99.90
8780;DHT22;62328;51.19929245;4.42130175;2022-08-21T02:38:04;17.80;99.90
8780;DHT22;62328;51.19929245;4.42130175;2022-08-21T02:40:33;17.70;99.90
8780;DHT22;62328;51.19929245;4.42130175;2022-08-21T02:43:02;17.70;99.90
8780;DHT22;62328;51.19929245;4.42130175;2022-08-21T02:45:31;17.70;99.90
8780;DHT22;62328;51.19929245;4.42130175;2022-08-21T02:48:00;17.70;99.90
8780;DHT22;62328;51.19929245;4.42130175;2022-08-21T02:50:29;17.60;99.90
8780;DHT22;62328;51.19929245;4.42130175;2022-08-21T02:52:56;17.50;99.90
8780;DHT22;62328;51.19929245;4.42130175;2022-08-21T02:55:26;17.50;99.90
8780;DHT22;62328;51.19929245;4.42130175;2022-08-21T02:57:54;17.50;99.90
8780;DHT22;62328;51.19929245;4.42130175;2022-08-21T03:00:23;17.50;99.90
8780;DHT22;62328;51.19929245;4.42130175;2022-08-21T03:02:52;17.50;99.90
8780;DHT22;62328;51.19929245;4.42130175;2022-08-21T03:05:22;17.50;99.90
8780;DHT22;62328;51.19929245;4.42130175;2022-08-21T03:07:49;17.40;99.90
8780;DHT22;62328;51.19929245;4.42130175;2022-08-21T03:10:16;17.40;99.90
8780;DHT22;62328;51.19929245;4.42130175;2022-08-21T03:12:45;17.40;99.90
8780;DHT22;62328;51.19929245;4.42130175;2022-08-21T03:15:14;17.40;99.90
8780;DHT22;62328;51.19929245;4.42130175;2022-08-21T03:17:42;17.40;99.90
8780;DHT22;62328;51.19929245;4.42130175;2022-08-21T03:20:11;17.40;99.90
8780;DHT22;62328;51.19929245;4.42130175;2022-08-21T03:22:39;17.40;99.90
8780;DHT22;62328;51.19929245;4.42130175;2022-08-21T03:25:07;17.30;99.90
8780;DHT22;62328;51.19929245;4.42130175;2022-08-21T03:27:36;17.30;99.90
8780;DHT22;62328;51.19929245;4.42130175;2022-08-21T03:30:04;17.30;99.90
8780;DHT22;62328;51.19929245;4.42130175;2022-08-21T03:32:31;17.30;99.90
8780;DHT22;62328;51.19929245;4.42130175;2022-08-21T03:34:59;17.30;99.90
8780;DHT22;62328;51.19929245;4.42130175;2022-08-21T03:37:27;17.30;99.90
8780;DHT22;62328;51.19929245;4.42130175;2022-08-21T03:39:54;17.30;99.90
8780;DHT22;62328;51.19929245;4.42130175;2022-08-21T03:42:21;17.30;99.90
8780;DHT22;62328;51.19929245;4.42130175;2022-08-21T03:44:48;17.30;99.90
8780;DHT22;62328;51.19929245;4.42130175;2022-08-21T03:47:15;17.30;99.90
8780;DHT22;62328;51.19929245;4.42130175;2022-08-21T03:49:42;17.20;99.90
8780;DHT22;62328;51.19929245;4.42130175;2022-08-21T03:52:09;17.20;99.90
8780;DHT22;62328;51.19929245;4.42130175;2022-08-21T03:54:37;17.20;99.90
8780;DHT22;62328;51.19929245;4.42130175;2022-08-21T03:57:07;17.20;99.90
8780;DHT22;62328;51.19929245;4.42130175;2022-08-21T03:59:34;17.10;99.90
8780;DHT22;62328;51.19929245;4.42130175;2022-08-21T04:02:04;17.10;99.90
8780;DHT22;62328;51.19929245;4.42130175;2022-08-21T04:04:31;17.10;99.90
8780;DHT22;62328;51.19929245;4.42130175;2022-08-21T04:06:59;17.00;99.90
8780;DHT22;62328;51.19929245;4.42130175;2022-08-21T04:09:27;17.10;99.90
8780;DHT22;62328;51.19929245;4.42130175;2022-08-21T04:11:57;17.10;99.90
8780;DHT22;62328;51.19929245;4.42130175;2022-08-21T04:14:25;17.00;99.90
8780;DHT22;62328;51.19929245;4.42130175;2022-08-21T04:16:52;17.00;99.90
8780;DHT22;62328;51.19929245;4.42130175;2022-08-21T04:19:18;17.00;99.90
8780;DHT22;62328;51.19929245;4.42130175;2022-08-21T04:21:45;17.00;99.90
8780;DHT22;62328;51.19929245;4.42130175;2022-08-21T04:24:12;17.00;99.90
8780;DHT22;62328;51.19929245;4.42130175;2022-08-21T04:26:39;16.90;99.90
8780;DHT22;62328;51.19929245;4.42130175;2022-08-21T04:29:07;16.90;99.90
8780;DHT22;62328;51.19929245;4.42130175;2022-08-21T04:31:35;16.90;99.90
8780;DHT22;62328;51.19929245;4.42130175;2022-08-21T04:34:03;16.90;99.90
8780;DHT22;62328;51.19929245;4.42130175;2022-08-21T04:36:30;16.90;99.90
8780;DHT22;62328;51.19929245;4.42130175;2022-08-21T04:38:57;16.90;99.90
8780;DHT22;62328;51.19929245;4.42130175;2022-08-21T04:41:24;16.90;99.90
8780;DHT22;62328;51.19929245;4.42130175;2022-08-21T04:43:51;16.80;99.90
8780;DHT22;62328;51.19929245;4.42130175;2022-08-21T04:46:22;16.90;99.90
8780;DHT22;62328;51.19929245;4.42130175;2022-08-21T04:48:49;16.90;99.90
8780;DHT22;62328;51.19929245;4.42130175;2022-08-21T04:51:17;16.90;99.90
8780;DHT22;62328;51.19929245;4.42130175;2022-08-21T04:53:49;16.80;99.90
8780;DHT22;62328;51.19929245;4.42130175;2022-08-21T04:56:20;16.80;99.90
8780;DHT22;62328;51.19929245;4.42130175;2022-08-21T04:58:49;16.80;99.90
8780;DHT22;62328;51.19929245;4.42130175;2022-08-21T05:01:20;16.90;99.90
8780;DHT22;62328;51.19929245;4.42130175;2022-08-21T05:03:51;16.80;99.90
8780;DHT22;62328;51.19929245;4.42130175;2022-08-21T05:06:19;16.80;99.90
8780;DHT22;62328;51.19929245;4.42130175;2022-08-21T05:08:47;16.80;99.90
8780;DHT22;62328;51.19929245;4.42130175;2022-08-21T05:11:15;16.80;99.90
8780;DHT22;62328;51.19929245;4.42130175;2022-08-21T05:13:42;16.70;99.90
8780;DHT22;62328;51.19929245;4.42130175;2022-08-21T05:16:09;16.70;99.90
8780;DHT22;62328;51.19929245;4.42130175;2022-08-21T05:18:36;16.70;99.90
8780;DHT22;62328;51.19929245;4.42130175;2022-08-21T05:21:04;16.70;99.90
8780;DHT22;62328;51.19929245;4.42130175;2022-08-21T05:23:31;16.70;99.90
8780;DHT22;62328;51.19929245;4.42130175;2022-08-21T05:26:00;16.70;99.90
8780;DHT22;62328;51.19929245;4.42130175;2022-08-21T05:28:27;16.80;99.90
8780;DHT22;62328;51.19929245;4.42130175;2022-08-21T05:30:54;16.80;99.90
8780;DHT22;62328;51.19929245;4.42130175;2022-08-21T05:33:21;16.80;99.90
8780;DHT22;62328;51.19929245;4.42130175;2022-08-21T05:35:50;16.90;99.90
8780;DHT22;62328;51.19929245;4.42130175;2022-08-21T05:38:18;16.90;99.90
8780;DHT22;62328;51.19929245;4.42130175;2022-08-21T05:40:46;16.90;99.90
8780;DHT22;62328;51.19929245;4.42130175;2022-08-21T05:43:15;16.90;99.90
8780;DHT22;62328;51.19929245;4.42130175;2022-08-21T05:45:42;16.90;99.90
8780;DHT22;62328;51.19929245;4.42130175;2022-08-21T05:48:11;17.00;99.90
8780;DHT22;62328;51.19929245;4.42130175;2022-08-21T05:50:39;17.00;99.90
8780;DHT22;62328;51.19929245;4.42130175;2022-08-21T05:53:06;17.00;99.90
8780;DHT22;62328;51.19929245;4.42130175;2022-08-21T05:55:37;17.10;99.90
8780;DHT22;62328;51.19929245;4.42130175;2022-08-21T05:58:04;17.10;99.90
8780;DHT22;62328;51.19929245;4.42130175;2022-08-21T06:00:31;17.10;99.90
8780;DHT22;62328;51.19929245;4.42130175;2022-08-21T06:02:59;17.10;99.90
8780;DHT22;62328;51.19929245;4.42130175;2022-08-21T06:05:26;17.10;99.90
8780;DHT22;62328;51.19929245;4.42130175;2022-08-21T06:07:53;17.10;99.90
8780;DHT22;62328;51.19929245;4.42130175;2022-08-21T06:10:20;17.20;99.90
8780;DHT22;62328;51.19929245;4.42130175;2022-08-21T06:12:52;17.20;99.90
8780;DHT22;62328;51.19929245;4.42130175;2022-08-21T06:15:19;17.20;99.90
8780;DHT22;62328;51.19929245;4.42130175;2022-08-21T06:17:46;17.30;99.90
8780;DHT22;62328;51.19929245;4.42130175;2022-08-21T06:20:13;17.30;99.90
8780;DHT22;62328;51.19929245;4.42130175;2022-08-21T06:22:40;17.40;99.90
8780;DHT22;62328;51.19929245;4.42130175;2022-08-21T06:25:08;17.40;99.90
8780;DHT22;62328;51.19929245;4.42130175;2022-08-21T06:27:35;17.50;99.90
8780;DHT22;62328;51.19929245;4.42130175;2022-08-21T06:30:04;17.50;99.90
8780;DHT22;62328;51.19929245;4.42130175;2022-08-21T06:32:32;17.50;99.90
8780;DHT22;62328;51.19929245;4.42130175;2022-08-21T06:34:59;17.60;99.90
8780;DHT22;62328;51.19929245;4.42130175;2022-08-21T06:37:26;17.70;99.90
8780;DHT22;62328;51.19929245;4.42130175;2022-08-21T06:39:53;17.70;99.90
8780;DHT22;62328;51.19929245;4.42130175;2022-08-21T06:42:20;17.70;99.90
8780;DHT22;62328;51.19929245;4.42130175;2022-08-21T06:44:47;17.80;99.90
8780;DHT22;62328;51.19929245;4.42130175;2022-08-21T06:47:19;17.80;99.90
8780;DHT22;62328;51.19929245;4.42130175;2022-08-21T06:49:46;17.80;99.90
8780;DHT22;62328;51.19929245;4.42130175;2022-08-21T06:52:13;17.80;99.90
8780;DHT22;62328;51.19929245;4.42130175;2022-08-21T06:54:41;17.90;99.90
8780;DHT22;62328;51.19929245;4.42130175;2022-08-21T06:57:08;17.90;99.90
8780;DHT22;62328;51.19929245;4.42130175;2022-08-21T06:59:35;18.00;99.90
8780;DHT22;62328;51.19929245;4.42130175;2022-08-21T07:02:02;18.00;99.90
8780;DHT22;62328;51.19929245;4.42130175;2022-08-21T07:04:31;18.00;99.90
8780;DHT22;62328;51.19929245;4.42130175;2022-08-21T07:06:58;18.10;99.90
8780;DHT22;62328;51.19929245;4.42130175;2022-08-21T07:09:26;18.20;99.90
8780;DHT22;62328;51.19929245;4.42130175;2022-08-21T07:11:56;18.10;99.90
8780;DHT22;62328;51.19929245;4.42130175;2022-08-21T07:14:23;18.20;99.90
8780;DHT22;62328;51.19929245;4.42130175;2022-08-21T07:16:50;18.20;99.90
8780;DHT22;62328;51.19929245;4.42130175;2022-08-21T07:19:17;18.30;99.90
8780;DHT22;62328;51.19929245;4.42130175;2022-08-21T07:21:46;18.40;99.90
8780;DHT22;62328;51.19929245;4.42130175;2022-08-21T07:24:13;18.40;99.90
8780;DHT22;62328;51.19929245;4.42130175;2022-08-21T07:26:42;18.40;99.90
8780;DHT22;62328;51.19929245;4.42130175;2022-08-21T07:29:08;18.50;99.90
8780;DHT22;62328;51.19929245;4.42130175;2022-08-21T07:31:35;18.60;99.90
8780;DHT22;62328;51.19929245;4.42130175;2022-08-21T07:34:02;18.70;99.90
8780;DHT22;62328;51.19929245;4.42130175;2022-08-21T07:36:29;18.90;99.90
8780;DHT22;62328;51.19929245;4.42130175;2022-08-21T07:38:57;18.90;99.90
8780;DHT22;62328;51.19929245;4.42130175;2022-08-21T07:41:26;18.90;99.90
8780;DHT22;62328;51.19929245;4.42130175;2022-08-21T07:43:55;19.00;99.90
8780;DHT22;62328;51.19929245;4.42130175;2022-08-21T07:46:23;19.10;99.90
8780;DHT22;62328;51.19929245;4.42130175;2022-08-21T07:48:50;19.20;99.90
8780;DHT22;62328;51.19929245;4.42130175;2022-08-21T07:51:19;19.20;99.90
8780;DHT22;62328;51.19929245;4.42130175;2022-08-21T07:53:48;19.30;99.90
8780;DHT22;62328;51.19929245;4.42130175;2022-08-21T07:56:16;19.40;99.90
8780;DHT22;62328;51.19929245;4.42130175;2022-08-21T07:58:43;19.40;99.90
8780;DHT22;62328;51.19929245;4.42130175;2022-08-21T08:01:11;19.50;99.90
8780;DHT22;62328;51.19929245;4.42130175;2022-08-21T08:03:39;19.60;99.90
8780;DHT22;62328;51.19929245;4.42130175;2022-08-21T08:06:06;19.60;99.90
8780;DHT22;62328;51.19929245;4.42130175;2022-08-21T08:08:37;19.70;99.90
8780;DHT22;62328;51.19929245;4.42130175;2022-08-21T08:11:06;19.80;99.90
8780;DHT22;62328;51.19929245;4.42130175;2022-08-21T08:13:39;19.80;99.90
8780;DHT22;62328;51.19929245;4.42130175;2022-08-21T08:16:06;19.90;99.90
8780;DHT22;62328;51.19929245;4.42130175;2022-08-21T08:18:33;19.90;99.90
8780;DHT22;62328;51.19929245;4.42130175;2022-08-21T08:21:00;19.90;99.90
8780;DHT22;62328;51.19929245;4.42130175;2022-08-21T08:23:27;19.90;99.90
8780;DHT22;62328;51.19929245;4.42130175;2022-08-21T08:25:56;19.90;99.90
8780;DHT22;62328;51.19929245;4.42130175;2022-08-21T08:28:22;20.00;99.90
8780;DHT22;62328;51.19929245;4.42130175;2022-08-21T08:30:51;20.00;99.90
8780;DHT22;62328;51.19929245;4.42130175;2022-08-21T08:33:18;20.00;99.90
8780;DHT22;62328;51.19929245;4.42130175;2022-08-21T08:35:46;20.10;99.90
8780;DHT22;62328;51.19929245;4.42130175;2022-08-21T08:38:14;20.30;99.90
8780;DHT22;62328;51.19929245;4.42130175;2022-08-21T08:40:47;20.30;99.90
8780;DHT22;62328;51.19929245;4.42130175;2022-08-21T08:43:14;20.30;99.90
8780;DHT22;62328;51.19929245;4.42130175;2022-08-21T08:45:46;20.30;99.90
8780;DHT22;62328;51.19929245;4.42130175;2022-08-21T08:48:31;20.40;99.90
8780;DHT22;62328;51.19929245;4.42130175;2022-08-21T08:51:03;20.50;99.90
8780;DHT22;62328;51.19929245;4.42130175;2022-08-21T08:53:45;20.70;99.90
8780;DHT22;62328;51.19929245;4.42130175;2022-08-21T08:56:13;20.80;99.90
8780;DHT22;62328;51.19929245;4.42130175;2022-08-21T08:58:42;20.80;99.90
8780;DHT22;62328;51.19929245;4.42130175;2022-08-21T09:01:16;20.90;99.90
8780;DHT22;62328;51.19929245;4.42130175;2022-08-21T09:03:45;20.90;99.90
8780;DHT22;62328;51.19929245;4.42130175;2022-08-21T09:06:22;21.00;99.90
8780;DHT22;62328;51.19929245;4.42130175;2022-08-21T09:08:59;21.10;99.90
8780;DHT22;62328;51.19929245;4.42130175;2022-08-21T09:11:30;21.10;99.90
8780;DHT22;62328;51.19929245;4.42130175;2022-08-21T09:14:14;21.20;99.90
8780;DHT22;62328;51.19929245;4.42130175;2022-08-21T09:16:47;21.20;99.90
8780;DHT22;62328;51.19929245;4.42130175;2022-08-21T09:19:32;21.10;99.90
8780;DHT22;62328;51.19929245;4.42130175;2022-08-21T09:22:06;21.10;99.90
8780;DHT22;62328;51.19929245;4.42130175;2022-08-21T09:24:42;21.00;99.90
8780;DHT22;62328;51.19929245;4.42130175;2022-08-21T09:27:14;21.10;99.90
8780;DHT22;62328;51.19929245;4.42130175;2022-08-21T09:29:43;21.20;99.90
8780;DHT22;62328;51.19929245;4.42130175;2022-08-21T09:32:15;21.40;99.90
8780;DHT22;62328;51.19929245;4.42130175;2022-08-21T09:34:55;21.50;99.90
8780;DHT22;62328;51.19929245;4.42130175;2022-08-21T09:37:23;21.50;99.90
8780;DHT22;62328;51.19929245;4.42130175;2022-08-21T09:39:50;21.70;99.90
8780;DHT22;62328;51.19929245;4.42130175;2022-08-21T09:42:23;21.70;99.90
8780;DHT22;62328;51.19929245;4.42130175;2022-08-21T09:45:06;21.70;99.90
8780;DHT22;62328;51.19929245;4.42130175;2022-08-21T09:47:34;21.90;99.90
8780;DHT22;62328;51.19929245;4.42130175;2022-08-21T09:50:14;21.80;99.90
8780;DHT22;62328;51.19929245;4.42130175;2022-08-21T09:52:48;21.80;99.90
8780;DHT22;62328;51.19929245;4.42130175;2022-08-21T09:55:22;21.80;99.90
8780;DHT22;62328;51.19929245;4.42130175;2022-08-21T09:58:07;22.00;99.90
8780;DHT22;62328;51.19929245;4.42130175;2022-08-21T10:00:35;21.90;99.90
8780;DHT22;62328;51.19929245;4.42130175;2022-08-21T10:03:15;21.80;99.90
8780;DHT22;62328;51.19929245;4.42130175;2022-08-21T10:05:54;21.70;99.90
8780;DHT22;62328;51.19929245;4.42130175;2022-08-21T10:08:23;21.60;99.90
8780;DHT22;62328;51.19929245;4.42130175;2022-08-21T10:10:53;21.50;99.90
8780;DHT22;62328;51.19929245;4.42130175;2022-08-21T10:13:24;21.50;99.90
8780;DHT22;62328;51.19929245;4.42130175;2022-08-21T10:16:05;21.50;99.90
8780;DHT22;62328;51.19929245;4.42130175;2022-08-21T10:18:39;21.50;99.90
8780;DHT22;62328;51.19929245;4.42130175;2022-08-21T10:21:15;21.60;99.90
8780;DHT22;62328;51.19929245;4.42130175;2022-08-21T10:23:54;21.70;99.90
8780;DHT22;62328;51.19929245;4.42130175;2022-08-21T10:26:35;21.90;99.90
8780;DHT22;62328;51.19929245;4.42130175;2022-08-21T10:29:12;22.10;99.90
8780;DHT22;62328;51.19929245;4.42130175;2022-08-21T10:31:50;22.20;99.90
8780;DHT22;62328;51.19929245;4.42130175;2022-08-21T10:34:32;22.30;99.90
8780;DHT22;62328;51.19929245;4.42130175;2022-08-21T10:37:12;22.30;99.90
8780;DHT22;62328;51.19929245;4.42130175;2022-08-21T10:39:49;22.20;99.90
8780;DHT22;62328;51.19929245;4.42130175;2022-08-21T10:42:31;22.30;99.90
8780;DHT22;62328;51.19929245;4.42130175;2022-08-21T10:45:09;22.20;99.90
8780;DHT22;62328;51.19929245;4.42130175;2022-08-21T10:47:42;22.10;99.90
8780;DHT22;62328;51.19929245;4.42130175;2022-08-21T10:50:16;22.10;99.90
8780;DHT22;62328;51.19929245;4.42130175;2022-08-21T10:53:10;22.10;99.90
8780;DHT22;62328;51.19929245;4.42130175;2022-08-21T10:55:44;22.20;99.90
8780;DHT22;62328;51.19929245;4.42130175;2022-08-21T10:58:19;22.30;99.90
8780;DHT22;62328;51.19929245;4.42130175;2022-08-21T11:00:52;22.30;99.90
8780;DHT22;62328;51.19929245;4.42130175;2022-08-21T11:03:24;22.40;99.90
8780;DHT22;62328;51.19929245;4.42130175;2022-08-21T11:05:56;22.40;99.90
8780;DHT22;62328;51.19929245;4.42130175;2022-08-21T11:08:29;22.40;99.90
8780;DHT22;62328;51.19929245;4.42130175;2022-08-21T11:11:02;22.40;99.90
8780;DHT22;62328;51.19929245;4.42130175;2022-08-21T11:13:37;22.40;99.90
8780;DHT22;62328;51.19929245;4.42130175;2022-08-21T11:18:56;22.60;99.90
8780;DHT22;62328;51.19929245;4.42130175;2022-08-21T11:21:32;22.70;99.90
8780;DHT22;62328;51.19929245;4.42130175;2022-08-21T11:24:09;22.80;99.90
8780;DHT22;62328;51.19929245;4.42130175;2022-08-21T11:26:43;22.80;99.90
8780;DHT22;62328;51.19929245;4.42130175;2022-08-21T11:29:15;22.80;99.90
8780;DHT22;62328;51.19929245;4.42130175;2022-08-21T11:31:58;22.80;99.90
8780;DHT22;62328;51.19929245;4.42130175;2022-08-21T11:34:38;22.80;99.90
8780;DHT22;62328;51.19929245;4.42130175;2022-08-21T11:37:17;22.80;99.90
8780;DHT22;62328;51.19929245;4.42130175;2022-08-21T11:39:56;23.00;99.90
8780;DHT22;62328;51.19929245;4.42130175;2022-08-21T11:42:30;23.10;99.90
8780;DHT22;62328;51.19929245;4.42130175;2022-08-21T11:45:12;23.10;99.90
8780;DHT22;62328;51.19929245;4.42130175;2022-08-21T11:47:49;23.10;99.90
8780;DHT22;62328;51.19929245;4.42130175;2022-08-21T11:50:23;23.10;99.90
8780;DHT22;62328;51.19929245;4.42130175;2022-08-21T11:52:55;23.20;99.90
8780;DHT22;62328;51.19929245;4.42130175;2022-08-21T11:55:28;23.30;99.90
8780;DHT22;62328;51.19929245;4.42130175;2022-08-21T11:57:59;23.30;99.90
8780;DHT22;62328;51.19929245;4.42130175;2022-08-21T12:00:31;23.40;99.90
8780;DHT22;62328;51.19929245;4.42130175;2022-08-21T12:03:11;23.50;99.90
8780;DHT22;62328;51.19929245;4.42130175;2022-08-21T12:05:43;23.60;99.90
8780;DHT22;62328;51.19929245;4.42130175;2022-08-21T12:08:12;23.60;99.90
8780;DHT22;62328;51.19929245;4.42130175;2022-08-21T12:10:42;23.70;99.90
8780;DHT22;62328;51.19929245;4.42130175;2022-08-21T12:13:23;23.80;99.90
8780;DHT22;62328;51.19929245;4.42130175;2022-08-21T12:15:50;23.80;99.90
8780;DHT22;62328;51.19929245;4.42130175;2022-08-21T12:18:23;23.90;99.90
8780;DHT22;62328;51.19929245;4.42130175;2022-08-21T12:21:04;23.90;99.90
8780;DHT22;62328;51.19929245;4.42130175;2022-08-21T12:23:33;24.10;99.90
8780;DHT22;62328;51.19929245;4.42130175;2022-08-21T12:26:28;24.10;99.90
8780;DHT22;62328;51.19929245;4.42130175;2022-08-21T12:29:16;24.20;99.90
8780;DHT22;62328;51.19929245;4.42130175;2022-08-21T12:31:50;24.20;99.90
8780;DHT22;62328;51.19929245;4.42130175;2022-08-21T12:34:17;24.20;99.90
8780;DHT22;62328;51.19929245;4.42130175;2022-08-21T12:36:48;24.30;99.90
8780;DHT22;62328;51.19929245;4.42130175;2022-08-21T12:39:22;24.30;99.90
8780;DHT22;62328;51.19929245;4.42130175;2022-08-21T12:41:57;24.50;99.90
8780;DHT22;62328;51.19929245;4.42130175;2022-08-21T12:44:30;24.50;99.90
8780;DHT22;62328;51.19929245;4.42130175;2022-08-21T12:47:03;24.60;99.90
8780;DHT22;62328;51.19929245;4.42130175;2022-08-21T12:49:34;24.50;99.90
8780;DHT22;62328;51.19929245;4.42130175;2022-08-21T12:52:07;24.40;99.90
8780;DHT22;62328;51.19929245;4.42130175;2022-08-21T12:54:39;24.20;99.90
8780;DHT22;62328;51.19929245;4.42130175;2022-08-21T12:57:09;24.00;99.90
8780;DHT22;62328;51.19929245;4.42130175;2022-08-21T12:59:43;23.80;99.90
8780;DHT22;62328;51.19929245;4.42130175;2022-08-21T13:02:16;23.60;99.90
8780;DHT22;62328;51.19929245;4.42130175;2022-08-21T13:04:45;23.50;99.90
8780;DHT22;62328;51.19929245;4.42130175;2022-08-21T13:07:15;23.50;99.90
8780;DHT22;62328;51.19929245;4.42130175;2022-08-21T13:09:48;23.40;99.90
8780;DHT22;62328;51.19929245;4.42130175;2022-08-21T13:12:17;23.40;99.90
8780;DHT22;62328;51.19929245;4.42130175;2022-08-21T13:14:47;23.30;99.90
8780;DHT22;62328;51.19929245;4.42130175;2022-08-21T13:17:17;23.30;99.90
8780;DHT22;62328;51.19929245;4.42130175;2022-08-21T13:19:53;23.20;99.90
8780;DHT22;62328;51.19929245;4.42130175;2022-08-21T13:22:20;23.10;99.90
8780;DHT22;62328;51.19929245;4.42130175;2022-08-21T13:24:48;23.10;99.90
8780;DHT22;62328;51.19929245;4.42130175;2022-08-21T13:27:24;23.10;99.90
8780;DHT22;62328;51.19929245;4.42130175;2022-08-21T13:30:04;23.10;99.90
8780;DHT22;62328;51.19929245;4.42130175;2022-08-21T13:32:34;23.10;99.90
8780;DHT22;62328;51.19929245;4.42130175;2022-08-21T13:35:17;23.10;99.90
8780;DHT22;62328;51.19929245;4.42130175;2022-08-21T13:37:46;23.30;99.90
8780;DHT22;62328;51.19929245;4.42130175;2022-08-21T13:40:16;23.20;99.90
8780;DHT22;62328;51.19929245;4.42130175;2022-08-21T13:42:46;23.30;99.90
8780;DHT22;62328;51.19929245;4.42130175;2022-08-21T13:45:17;23.60;99.90
8780;DHT22;62328;51.19929245;4.42130175;2022-08-21T13:47:46;23.70;99.90
8780;DHT22;62328;51.19929245;4.42130175;2022-08-21T13:50:16;23.80;99.90
8780;DHT22;62328;51.19929245;4.42130175;2022-08-21T13:52:49;24.00;99.90